Friday, January 18, 2019, 3:33 AM EST
Back to Local

KLCI, Laconia, Laconia Municipal Airport

Location: Laconia, NH, United States Lat: 43.567
Local Time: 3:33 AM EST ( 8:33 GMT) Lon: -71.417
Time Zone: US/Eastern Elev: 544 ft

Show me the last for .
Show Coded

Time T Td Feel RH Dir Speed Gust Alt SLP Vis Weather Sky Remarks
2019-01-18 02:56 15 5 - 63 - Calm - 30.22 30.28 10 BKN075 OVC090 None
2019-01-18 01:56 16 6 9 64 310° 5 - 30.24 30.30 10 BKN070 BKN085 OVC100 None
2019-01-18 00:56 14 7 8 73 230° 3 - 30.25 30.31 10 OVC090 6-hr Min Temp (1am): 12.0°F
6-hr Max Temp (1am): 15.1°F
2019-01-17 23:56 14 7 - 73 - Calm - 30.28 30.33 10 BKN075 OVC090 24-hr Min Temp (12am): 1.0°F
24-hr Max Temp (12am): 19.9°F
2019-01-17 22:56 13 5 - 69 - Calm - 30.30 30.36 10 OVC110 None
2019-01-17 21:56 13 5 - 69 - Calm - 30.31 30.37 10 SCT120 None
2019-01-17 20:56 13 4 - 66 - Calm - 30.31 30.37 10 CLR None
2019-01-17 19:56 13 4 - 66 - Calm - 30.30 30.36 10 OVC110 None
2019-01-17 18:56 13 2 - 60 - Calm - 30.31 30.37 10 CLR 6-hr Min Temp (7pm): 12.0°F
6-hr Max Temp (7pm): 19.9°F
2019-01-17 17:56 13 1 - 58 - Calm - 30.31 30.37 10 CLR None
2019-01-17 16:56 17 -4 12 38 270° 3 - 30.30 30.36 10 CLR None
2019-01-17 15:56 18 -4 13 36 250° 3 - 30.30 30.36 10 CLR None
2019-01-17 14:56 18 -5 9 34 250° 7 - 30.31 30.37 10 CLR None
2019-01-17 13:56 18 -6 11 33 Variable 5 - 30.32 30.37 10 CLR None
2019-01-17 12:56 17 -5 9 36 230° 6 - 30.32 30.38 10 CLR 6-hr Min Temp (1pm): 1.0°F
6-hr Max Temp (1pm): 17.1°F
2019-01-17 11:56 14 -8 6 36 240° 5 - 30.35 30.41 10 CLR None
2019-01-17 10:56 12 -6 0 43 260° 8 - 30.38 30.44 10 CLR None
2019-01-17 09:56 9 -5 -2 51 260° 7 - 30.40 30.46 10 CLR None
2019-01-17 08:56 6 -6 -4 56 240° 6 - 30.38 30.44 10 CLR None
2019-01-17 07:56 2 -5 -8 71 230° 5 - 30.36 30.42 10 CLR None
2019-01-17 06:56 4 -5 -5 65 200° 5 - 30.35 30.40 10 CLR 6-hr Min Temp (7am): 3.0°F
6-hr Max Temp (7am): 12.0°F
2019-01-17 05:56 5 -5 -2 62 220° 3 - 30.33 30.39 10 CLR None
2019-01-17 04:56 6 -5 -7 59 260° 8 - 30.30 30.36 10 CLR None
2019-01-17 03:56 7 -4 -11 59 260° 9 16 30.29 30.34 10 CLR None

Support USWX by starting your Amazon purchase here.